Terminal Aerodrome Forecast
Issued by NWS

Home | Current Version | Previous Version | Text Only | Print | Product List | Glossary On
Versions: 1 2 3 4 5 6 7 8 9 10 11 12 13 14 15 16 17 18 19 20 21
000
FTUS45 KREV 032300
TAFRNO
TAF
KRNO 032333Z 0400/0424 32015G25KT P6SM SCT120
     FM040400 28008KT P6SM SCT150
     FM040800 VRB04KT P6SM SCT250
     FM042200 28010G20KT P6SM SCT150=

USA.gov is the U.S. government's official web portal to all federal, state and local government web resources and services.